Potomac Falls, Virginia
Current Conditions -  °F | °C
As of 8:41 AM on Wednesday 22 Oct 2014 (Local Time) from KIAD Reporting Station
Light Rain Light Rain  
Wind Chill: 52°   Ceiling: 1900
Heat Index: 52°   Visibility: 7mi
Dew Point: 48°   Wind: 12mph
Humidity: 88%   Direction: 330°NNW
Pressure: 29.94"   Gusts: NA
Location:  39.0512°N, 77.4089°W
Report Text: KIAD 221241Z 33010KT 7SM -RA BKN019 OVC030 11/09 A2994 RMK AO2 P0009
Loading
Personal Weather Stations






























Interactive Weather Map
Tropical Storm Tracking
New forecast layout! Learn more

10-Day Weather Forecast

Advertisements
Track Severe Weather on mobile